»·PEaware :: AAL1388 KSJC-KLAX

AAL1388 :: KSJC-KLAX

FLIGHT INFORMATION

Flight Status: Arrived
Operator:
American Airlines
More flights by this operator :: More flights under this callsign
Pilot: Jonathan O. (14851)
Aircraft: CANADAIR CL-600 CRJ-700
(CRJ7)
More flights by this aircraft type
Origin: KSJC Mineta San Jose Intl
United States
Destination: KLAX Los Angeles Intl
United States
More flights between these airports :: More routes between these airports
Route: SPTNS1 VLREE EBAYE BURGL IRNMN2
File this flight plan on PilotEdge
Remarks:
Altitude:
(Current/Filed)
37,000ft
Speed:
(Current/Filed)
495kts
Departed: 10-Sep-22 07:48 PM
Arrived: 10-Sep-22 08:46 PM
Distance/Time
Traveled:
267nm/0:58
Distance/Time
To Go:
Arrived

Flight Plot

Page will automatically refresh every two minutes.

Flight plan parsing failed; only flown route is shown


Map Options




Map Legend


Flown Route
Filed Route
Departure Airport
Arrival Airport
Navaid (VOR, NDB)
Fix

Horizontal Profiles

Position Reports

Time Latitude Longitude Heading Altitude Ground
Speed
10-Sep-22 19:06 37.370629 -121.931804 52 43ft 0kts
10-Sep-22 19:07 37.370629 -121.931804 52 43ft 0kts
10-Sep-22 19:08 37.370629 -121.931804 52 43ft 0kts
10-Sep-22 19:09 37.370629 -121.931804 52 43ft 0kts
10-Sep-22 19:10 37.370629 -121.931804 52 43ft 0kts
10-Sep-22 19:11 37.370629 -121.931804 52 43ft 0kts
10-Sep-22 19:12 37.370629 -121.931804 52 43ft 0kts
10-Sep-22 19:13 37.370629 -121.931804 52 43ft 0kts
10-Sep-22 19:14 37.370629 -121.931804 52 43ft 0kts
10-Sep-22 19:15 37.370629 -121.931804 52 43ft 0kts
10-Sep-22 19:16 37.370629 -121.931804 52 43ft 0kts
10-Sep-22 19:17 37.370481 -121.932054 61 44ft 2kts
10-Sep-22 19:18 37.370510 -121.932516 130 41ft 0kts
10-Sep-22 19:19 37.370510 -121.932516 130 41ft 0kts
10-Sep-22 19:20 37.370510 -121.932516 130 41ft 0kts
10-Sep-22 19:21 37.370510 -121.932516 130 41ft 0kts
10-Sep-22 19:22 37.370510 -121.932516 130 41ft 0kts
10-Sep-22 19:23 37.370510 -121.932516 130 41ft 0kts
10-Sep-22 19:24 37.370510 -121.932516 130 41ft 0kts
10-Sep-22 19:25 37.370510 -121.932516 130 41ft 0kts
10-Sep-22 19:26 37.370510 -121.932516 130 41ft 0kts
10-Sep-22 19:28 37.370510 -121.932516 130 41ft 0kts
10-Sep-22 19:29 37.370510 -121.932516 130 41ft 0kts
10-Sep-22 19:30 37.370510 -121.932516 130 41ft 0kts
10-Sep-22 19:31 37.370510 -121.932516 130 41ft 0kts
10-Sep-22 19:32 37.370510 -121.932516 130 41ft 0kts
10-Sep-22 19:33 37.370510 -121.932516 130 41ft 0kts
10-Sep-22 19:34 37.370510 -121.932516 130 41ft 0kts
10-Sep-22 19:35 37.370510 -121.932516 130 41ft 0kts
10-Sep-22 19:36 37.370510 -121.932516 130 41ft 0kts
10-Sep-22 19:37 37.370510 -121.932516 130 41ft 0kts
10-Sep-22 19:38 37.370460 -121.932441 130 46ft 0kts
10-Sep-22 19:39 37.367942 -121.929859 139 47ft 34kts
10-Sep-22 19:40 37.362869 -121.924336 138 57ft 19kts
10-Sep-22 19:41 37.358498 -121.919511 139 58ft 21kts
10-Sep-22 19:42 37.354498 -121.915123 140 65ft 1kts
10-Sep-22 19:43 37.353729 -121.915265 232 65ft 0kts
10-Sep-22 19:44 37.353729 -121.915265 232 65ft 0kts
10-Sep-22 19:45 37.353729 -121.915265 232 65ft 0kts
10-Sep-22 19:46 37.353729 -121.915265 232 65ft 0kts
10-Sep-22 19:47 37.353729 -121.915265 232 65ft 0kts
10-Sep-22 19:48 37.356455 -121.919904 318 62ft 92kts
10-Sep-22 19:49 37.390946 -121.956196 314 2562ft 199kts
10-Sep-22 19:50 37.443836 -121.961642 61 5799ft 257kts
10-Sep-22 19:50 37.425781 -121.894715 120 8549ft 268kts
10-Sep-22 19:52 37.353238 -121.827019 141 11693ft 307kts
10-Sep-22 19:53 37.292360 -121.743835 140 13935ft 353kts
10-Sep-22 19:54 37.214598 -121.659744 140 17100ft 378kts
10-Sep-22 19:55 37.134810 -121.568887 138 20167ft 397kts
10-Sep-22 19:55 37.065436 -121.490176 139 22432ft 412kts
10-Sep-22 19:56 36.976785 -121.395715 141 24837ft 426kts
10-Sep-22 19:57 36.885042 -121.298277 140 26905ft 440kts
10-Sep-22 19:59 36.773834 -121.180649 140 28985ft 456kts
10-Sep-22 20:00 36.675976 -121.077099 140 30429ft 467kts
10-Sep-22 20:00 36.592903 -120.989105 140 31380ft 475kts
10-Sep-22 20:01 36.489688 -120.884868 141 32429ft 478kts
10-Sep-22 20:02 36.388941 -120.782402 141 34633ft 453kts
10-Sep-22 20:03 36.292834 -120.685297 141 36131ft 442kts
10-Sep-22 20:04 36.197460 -120.589439 142 36914ft 444kts
10-Sep-22 20:05 36.099905 -120.491677 142 37025ft 459kts
10-Sep-22 20:06 35.999891 -120.392035 142 37007ft 454kts
10-Sep-22 20:07 35.903475 -120.295357 142 37010ft 444kts
10-Sep-22 20:08 35.799861 -120.206793 150 37016ft 460kts
10-Sep-22 20:09 35.688818 -120.125632 149 37006ft 468kts
10-Sep-22 20:10 35.579866 -120.042685 150 36989ft 453kts
10-Sep-22 20:11 35.473299 -119.962590 150 37002ft 450kts
10-Sep-22 20:12 35.365483 -119.881860 149 36535ft 463kts
10-Sep-22 20:13 35.257733 -119.797658 144 34273ft 457kts
10-Sep-22 20:14 35.157792 -119.701525 143 31924ft 462kts
10-Sep-22 20:15 35.054691 -119.606219 144 29506ft 460kts
10-Sep-22 20:16 34.954084 -119.517541 142 26996ft 437kts
10-Sep-22 20:17 34.863763 -119.427255 146 25393ft 419kts
10-Sep-22 20:18 34.768851 -119.346110 144 23254ft 405kts
10-Sep-22 20:19 34.677071 -119.264160 145 21123ft 408kts
10-Sep-22 20:20 34.592097 -119.190906 146 19018ft 355kts
10-Sep-22 20:21 34.505981 -119.116272 145 18011ft 381kts
10-Sep-22 20:22 34.423735 -119.042729 145 15445ft 356kts
10-Sep-22 20:23 34.347491 -118.977229 146 14108ft 338kts
10-Sep-22 20:24 34.269717 -118.907146 143 12401ft 337kts
10-Sep-22 20:25 34.200299 -118.842987 144 11961ft 310kts
10-Sep-22 20:26 34.133647 -118.778764 138 11285ft 311kts
10-Sep-22 20:27 34.073975 -118.711915 139 10095ft 277kts
10-Sep-22 20:28 34.028083 -118.639092 97 8779ft 288kts
10-Sep-22 20:29 34.018653 -118.548676 96 7975ft 247kts
10-Sep-22 20:30 34.011130 -118.466401 97 7154ft 249kts
10-Sep-22 20:31 34.022044 -118.385576 76 6390ft 243kts
10-Sep-22 20:32 34.033353 -118.305553 86 6023ft 239kts
10-Sep-22 20:33 34.039500 -118.225342 83 6018ft 236kts
10-Sep-22 20:34 34.047167 -118.147549 82 5987ft 216kts
10-Sep-22 20:35 34.054624 -118.073019 82 6061ft 230kts
10-Sep-22 20:36 34.038401 -118.011288 184 6326ft 201kts
10-Sep-22 20:37 34.004985 -118.055649 240 6011ft 196kts
10-Sep-22 20:38 33.982849 -118.117501 257 4194ft 189kts
10-Sep-22 20:39 33.975402 -118.172230 263 1953ft 156kts
10-Sep-22 20:40 33.971128 -118.215286 263 1000ft 126kts
10-Sep-22 20:41 33.965738 -118.260396 262 806ft 123kts
10-Sep-22 20:42 33.961633 -118.300615 264 1157ft 128kts
10-Sep-22 20:43 33.957213 -118.348322 264 1079ft 128kts
10-Sep-22 20:44 33.953251 -118.390097 264 331ft 127kts
10-Sep-22 20:45 33.949751 -118.418678 234 121ft 25kts
10-Sep-22 20:46 33.947932 -118.421316 221 121ft 14kts
10-Sep-22 20:47 33.947470 -118.422485 227 121ft 11kts
10-Sep-22 20:48 33.946595 -118.424778 269 121ft 7kts
10-Sep-22 20:49 33.945840 -118.428243 239 122ft 13kts
10-Sep-22 20:50 33.944843 -118.430572 163 121ft 10kts
10-Sep-22 20:51 33.944517 -118.430187 95 121ft 0kts

Navigation Log

Ident Type
Flight plan parsing failed, navigation log unavailable